Montgomery Regional (Dannelly Field) Airport
KMGM : now visible

Aeroporto :











RITROVATECI SU...

 
LOGIN :

Iscrizione | Disclaimer

   EN    FR    IT 

 









Sommario :    VFR   VFR Marginale   IFR   IFR Intensivo   IFR Molto Intensivo
Visibilità : 
Base nubi : 
>= 8 km
>= 3000ft
5 / 8 km
1000 / 3000 ft
1500m / 5 km
500 / 1000 ft
800 / 1500m
200 / 500 ft
< 800m
< 200 ft
Simboli :   Temporali  Nebbia  Neve Forte  Precipitazioni Forti  Vento > 20 kt






- Altitudine del aeroporto : 221 ft
- Codice IATA : MGM


KMGM - Montgomery Regional (Dannelly Field)

ULTIMO METAR :
  • 181853Z 14005KT 10SM OVC020 17/12 A3023 RMK AO2 RAE14 SLP237 P0000 T01670117

METARs OBSOLETI :
  • 181753Z 16007KT 9SM RA OVC022 17/11 A3027 RMK AO2 RAB52 SLP248 P0000 60000 T01670111 10167 20100 58027
  • 181653Z 13007KT 10SM OVC021 16/09 A3031 RMK AO2 SLP261 T01560094

TAF KMGM
Valido dal 18 a 18 ore il 19 a 18 ore UTC


181758Z 1818/1918 14010G20KT P6SM VCSH OVC022
FM182100 17009KT 6SM SHRA OVC015
FM190000 17005KT P6SM VCSH OVC011
FM190200 32007KT 5SM SHRA BKN007
FM190900 33010G18KT P6SM OVC035



MetMap, La meteo Aeronautica in un colpo d'occhio ! - Copyright ORBIFLY Dicembre 2007 - Disclaimer

ORBIFLY MET'MAP TEAM :

Programmazione e sviluppo : Alexandra Zaïnal
Concezione : Baudouin d'Aumeries
Aiuto per la programmazione : Marc-Olivier Méhu
Supporto tecnico e logistico : Manuel Goepfert
Aiuto per la traduzione : Arnaldo La Scala

Contatto : metmap@orbifly.com




FONTI E CREDITI :

   NOAA       Earth
Advisory